Time;durP1;ratioP1;P1;durP2;ratioP2;P2;SDS_P1;SDS_P2;PMS_P1;PMS_P2;Temp;Humidity;BMP_temperature;BMP_pressure;BME280_temperature;BME280_humidity;BME280_pressure;Samples;Min_cycle;Max_cycle;Signal;HPM_P1;HPM_P2
2022/09/26 00:01:25;;;;;;;16.17;8.18;;;12.30;99.90;;;11.07;100.00;100266.41;4924195;29;20042;-76
2022/09/26 00:04:00;;;;;;;21.92;9.00;;;12.20;99.90;;;11.06;100.00;100258.59;4941477;29;20110;-76
2022/09/26 00:06:27;;;;;;;16.30;9.13;;;12.20;99.90;;;11.03;100.00;100249.06;4926337;29;20039;-76
2022/09/26 00:08:54;;;;;;;19.85;9.13;;;12.20;99.90;;;11.01;100.00;100245.66;4925009;29;20279;-77
2022/09/26 00:11:30;;;;;;;13.50;8.52;;;12.20;99.90;;;10.98;100.00;100251.13;4925747;29;20110;-77
2022/09/26 00:14:01;;;;;;;15.38;8.68;;;12.10;99.90;;;10.95;100.00;100250.44;4926973;29;20035;-76
2022/09/26 00:16:27;;;;;;;16.00;9.13;;;12.10;99.90;;;10.91;100.00;100246.25;4927710;29;20504;-77
2022/09/26 00:18:56;;;;;;;20.02;9.40;;;12.10;99.90;;;10.90;100.00;100239.31;4927291;29;20060;-76
2022/09/26 00:21:22;;;;;;;21.02;8.73;;;12.10;99.90;;;10.88;100.00;100239.41;4925681;29;20034;-77
2022/09/26 00:23:48;;;;;;;17.75;9.65;;;12.10;99.90;;;10.85;100.00;100235.16;4926166;29;20032;-76
2022/09/26 00:26:17;;;;;;;17.15;9.43;;;12.10;99.90;;;10.87;100.00;100232.44;4910958;29;20027;-76
2022/09/26 00:28:43;;;;;;;23.13;9.05;;;12.00;99.90;;;10.86;100.00;100236.88;4927698;29;20547;-76
2022/09/26 00:31:17;;;;;;;15.45;8.80;;;12.00;99.90;;;10.84;100.00;100238.72;4944277;29;20035;-76
2022/09/26 00:33:43;;;;;;;18.05;9.05;;;12.00;99.90;;;10.82;100.00;100237.97;4924842;29;20039;-76
2022/09/26 00:36:12;;;;;;;16.25;8.93;;;12.00;99.90;;;10.80;100.00;100233.72;4941525;29;20064;-76
2022/09/26 00:38:38;;;;;;;15.50;8.50;;;11.90;99.90;;;10.79;100.00;100227.59;4925059;29;20058;-76
2022/09/26 00:41:05;;;;;;;18.65;8.52;;;12.00;99.90;;;10.78;100.00;100231.16;4925505;28;20130;-76
2022/09/26 00:43:39;;;;;;;18.85;8.32;;;11.90;99.90;;;10.75;100.00;100228.69;4940883;29;20097;-76
2022/09/26 00:46:30;;;;;;;14.25;8.23;;;11.90;99.90;;;10.71;100.00;100234.22;4925743;29;20403;-76
2022/09/26 00:49:22;;;;;;;18.17;7.55;;;11.90;99.90;;;10.65;100.00;100236.25;4929460;29;20206;-76
2022/09/26 00:51:54;;;;;;;18.88;8.00;;;11.80;99.90;;;10.60;100.00;100229.53;4942416;29;20042;-77
2022/09/26 00:54:20;;;;;;;18.08;7.40;;;11.80;99.90;;;10.53;100.00;100228.19;4924370;29;20031;-76
2022/09/26 00:56:51;;;;;;;21.27;7.40;;;11.70;99.90;;;10.49;100.00;100227.47;4924388;29;20416;-77
2022/09/26 00:59:24;;;;;;;26.52;7.35;;;11.70;99.90;;;10.40;100.00;100220.94;4925447;29;20035;-76
2022/09/26 01:01:51;;;;;;;19.92;7.30;;;11.60;99.90;;;10.30;100.00;100217.09;4925140;29;20059;-76
2022/09/26 01:04:18;;;;;;;19.50;7.55;;;11.50;99.90;;;10.24;100.00;100212.16;4926070;29;20424;-76
2022/09/26 01:06:45;;;;;;;14.98;7.03;;;11.50;99.90;;;10.19;100.00;100208.88;4922897;29;20132;-77
2022/09/26 01:09:13;;;;;;;17.77;7.13;;;11.40;99.90;;;10.14;100.00;100214.41;4922912;29;20038;-76
2022/09/26 01:11:42;;;;;;;15.48;6.95;;;11.30;99.90;;;10.07;100.00;100203.34;4921103;29;20063;-77
2022/09/26 01:14:10;;;;;;;21.25;7.13;;;11.30;99.90;;;10.03;100.00;100204.44;4943595;29;20115;-76
2022/09/26 01:16:40;;;;;;;21.83;7.05;;;11.20;99.90;;;9.96;100.00;100203.06;4940066;29;20039;-76
2022/09/26 01:19:46;;;;;;;23.75;6.85;;;11.20;99.90;;;9.91;100.00;100202.44;4931739;29;20473;-76
2022/09/26 01:22:47;;;;;;;18.45;6.93;;;11.10;99.90;;;9.83;100.00;100202.88;4938605;29;20036;-76
2022/09/26 01:26:05;;;;;;;17.50;6.25;;;11.00;99.90;;;9.78;100.00;100196.13;4943766;29;20035;-76
2022/09/26 01:28:36;;;;;;;17.60;5.88;;;11.00;99.90;;;9.70;100.00;100190.41;4940256;29;20046;-76
2022/09/26 01:31:12;;;;;;;11.52;5.60;;;11.00;99.90;;;9.65;100.00;100181.00;4925486;29;20038;-76
2022/09/26 01:34:07;;;;;;;15.70;6.32;;;10.90;99.90;;;9.60;100.00;100175.13;4924996;29;20038;-76
2022/09/26 01:37:29;;;;;;;16.58;5.70;;;10.90;99.90;;;9.55;100.00;100177.16;4941016;29;20129;-76
2022/09/26 01:40:05;;;;;;;16.38;5.57;;;10.80;99.90;;;9.49;100.00;100177.44;4939814;28;20054;-77
2022/09/26 01:42:54;;;;;;;;;;;10.80;99.90;;;9.42;100.00;100170.81;4931669;29;20028;-76
2022/09/26 01:45:32;;;;;;;16.17;5.20;;;10.70;99.90;;;9.37;100.00;100175.44;4941621;29;19964;-77
2022/09/26 01:48:15;;;;;;;22.65;5.80;;;10.60;99.90;;;9.33;100.00;100177.38;4925472;29;20035;-76
2022/09/26 01:51:23;;;;;;;15.13;6.20;;;10.60;99.90;;;9.27;100.00;100172.44;4925276;29;20615;-76
2022/09/26 01:54:05;;;;;;;18.67;6.47;;;10.50;99.90;;;9.19;100.00;100170.19;4926996;29;20493;-76
2022/09/26 01:56:37;;;;;;;21.15;7.93;;;10.50;99.90;;;9.15;100.00;100171.25;4938564;29;20470;-76
2022/09/26 01:59:12;;;;;;;18.00;7.15;;;10.40;99.90;;;9.10;100.00;100164.53;4925376;29;20673;-77
2022/09/26 02:01:43;;;;;;;17.52;7.75;;;10.30;99.90;;;9.06;100.00;100160.38;4924385;29;20036;-76
2022/09/26 02:04:19;;;;;;;18.92;7.65;;;10.40;99.90;;;9.02;100.00;100164.91;4922875;29;20156;-77
2022/09/26 02:07:02;;;;;;;25.77;7.53;;;10.30;99.90;;;8.99;100.00;100151.94;4939265;29;20035;-77
2022/09/26 02:09:42;;;;;;;13.93;7.75;;;10.30;99.90;;;8.97;100.00;100159.03;4940209;29;20512;-76
2022/09/26 02:12:13;;;;;;;25.42;8.80;;;10.20;99.90;;;8.93;100.00;100158.34;4940122;29;20031;-76
2022/09/26 02:14:42;;;;;;;17.92;8.00;;;10.20;99.90;;;8.90;100.00;100160.25;4940286;29;20034;-77
2022/09/26 02:17:14;;;;;;;20.63;8.50;;;10.20;99.90;;;8.85;100.00;100160.47;4926328;29;20035;-76
2022/09/26 02:19:55;;;;;;;25.33;8.15;;;10.10;99.90;;;8.83;100.00;100157.94;4940699;29;20111;-76
2022/09/26 02:22:26;;;;;;;22.92;8.02;;;10.10;99.90;;;8.77;100.00;100147.72;4939290;29;20037;-76
2022/09/26 02:24:52;;;;;;;22.00;8.00;;;10.10;99.90;;;8.74;100.00;100147.88;4939061;29;20115;-76
2022/09/26 02:27:18;;;;;;;24.50;8.45;;;10.00;99.90;;;8.71;100.00;100141.94;4924378;29;20044;-76
2022/09/26 02:29:44;;;;;;;28.17;7.72;;;10.00;99.90;;;8.67;100.00;100141.22;4942510;29;20046;-76
2022/09/26 02:32:18;;;;;;;27.05;8.00;;;9.90;99.90;;;8.60;100.00;100138.03;4922039;29;20408;-76
2022/09/26 02:34:46;;;;;;;17.48;7.68;;;9.90;99.90;;;8.57;100.00;100137.31;4926865;29;20031;-76
2022/09/26 02:37:15;;;;;;;22.52;7.90;;;9.80;99.90;;;8.52;100.00;100141.97;4924139;29;20027;-76
2022/09/26 02:39:42;;;;;;;27.23;7.95;;;9.80;99.90;;;8.46;100.00;100137.00;4921723;29;20035;-77
2022/09/26 02:42:35;;;;;;;25.95;8.07;;;9.70;99.90;;;8.40;100.00;100128.50;4938040;29;20116;-77
2022/09/26 02:45:35;;;;;;;13.95;7.03;;;9.70;99.90;;;8.33;100.00;100129.66;4941677;29;20060;-77
2022/09/26 02:48:19;;;;;;;24.00;8.38;;;9.60;99.90;;;8.27;100.00;100131.72;4927242;29;20101;-77
2022/09/26 02:51:26;;;;;;;27.20;7.07;;;9.60;99.90;;;8.20;100.00;100131.16;4924563;29;20035;-77
2022/09/26 02:54:17;;;;;;;23.77;6.82;;;9.50;99.90;;;8.14;100.00;100137.56;4940081;29;20606;-77
2022/09/26 02:57:10;;;;;;;29.50;7.60;;;9.40;99.90;;;8.08;100.00;100137.81;4939818;29;20039;-77
2022/09/26 03:00:11;;;;;;;20.80;6.85;;;8.90;99.90;;;8.01;100.00;100133.75;4939019;29;20039;-76
2022/09/26 03:03:15;;;;;;;21.65;6.78;;;9.30;99.90;;;7.96;100.00;100127.88;4924956;29;20035;-77
2022/09/26 03:05:44;;;;;;;28.90;7.32;;;9.30;99.90;;;7.92;100.00;100126.31;4923423;29;20031;-77
2022/09/26 03:08:21;;;;;;;26.00;6.78;;;9.30;99.90;;;7.92;100.00;100124.53;4923914;29;20039;-77
2022/09/26 03:10:49;;;;;;;23.05;6.75;;;9.20;99.90;;;7.90;100.00;100122.91;4926351;29;20063;-77
2022/09/26 03:13:17;;;;;;;21.92;6.70;;;9.20;99.90;;;7.87;100.00;100126.53;4939256;29;20036;-77
2022/09/26 03:15:52;;;;;;;25.20;6.95;;;9.20;99.90;;;7.85;100.00;100120.50;4942050;29;20638;-76
2022/09/26 03:18:34;;;;;;;19.98;7.10;;;9.20;99.90;;;7.84;100.00;100117.94;4932565;29;20074;-77
2022/09/26 03:21:00;;;;;;;29.92;7.25;;;9.10;99.90;;;7.80;100.00;100119.88;4942623;29;20035;-77
2022/09/26 03:23:27;;;;;;;17.55;6.47;;;9.10;99.90;;;7.76;100.00;100113.91;4926605;29;20164;-77
2022/09/26 03:26:24;;;;;;;21.27;7.50;;;9.10;99.90;;;7.74;100.00;100112.28;4926035;29;20038;-77
2022/09/26 03:28:52;;;;;;;25.50;7.93;;;9.00;99.90;;;7.70;100.00;100105.47;4921616;29;20175;-77
2022/09/26 03:31:20;;;;;;;17.60;6.80;;;9.00;99.90;;;7.68;100.00;100110.78;4927184;29;20027;-77
2022/09/26 03:33:47;;;;;;;16.52;6.50;;;9.00;99.90;;;7.65;100.00;100110.06;4927011;29;20031;-77
2022/09/26 03:36:13;;;;;;;18.88;6.55;;;9.00;99.90;;;7.64;100.00;100097.88;4941185;29;20027;-77
2022/09/26 03:38:39;;;;;;;20.38;7.13;;;8.90;99.90;;;7.61;100.00;100106.72;4926238;29;20027;-77
2022/09/26 03:41:06;;;;;;;16.50;6.40;;;8.90;99.90;;;7.58;100.00;100101.59;4942836;29;20765;-76
2022/09/26 03:43:33;;;;;;;25.05;7.35;;;8.90;99.90;;;7.55;100.00;100110.47;4925278;29;20055;-77
2022/09/26 03:46:04;;;;;;;17.33;6.35;;;8.80;99.90;;;7.54;100.00;100105.31;4933320;29;20110;-77
2022/09/26 03:48:31;;;;;;;25.25;6.80;;;8.80;99.90;;;7.53;100.00;100106.22;4943236;29;20656;-77
2022/09/26 03:51:10;;;;;;;24.17;6.70;;;8.80;99.90;;;7.52;100.00;100099.28;4925290;29;20059;-77
2022/09/26 03:53:39;;;;;;;16.42;6.20;;;8.80;99.90;;;7.48;100.00;100089.84;4942903;29;20515;-77
2022/09/26 03:56:16;;;;;;;23.38;6.78;;;8.70;99.90;;;7.46;100.00;100095.16;4926022;29;20051;-77
2022/09/26 03:58:43;;;;;;;19.95;7.65;;;8.80;99.90;;;7.44;100.00;100089.13;4945737;29;20378;-77
2022/09/26 04:01:19;;;;;;;17.48;8.02;;;8.70;99.90;;;7.41;100.00;100086.66;4928118;29;20043;-77
2022/09/26 04:03:47;;;;;;;26.98;8.07;;;8.70;99.90;;;7.37;100.00;100077.22;4927188;29;20031;-76
2022/09/26 04:06:18;;;;;;;17.58;6.80;;;8.70;99.90;;;7.36;100.00;100075.50;4924283;29;20055;-77
2022/09/26 04:08:46;;;;;;;19.85;6.90;;;8.70;99.90;;;7.33;100.00;100081.75;4926732;29;20042;-77
2022/09/26 04:11:15;;;;;;;16.95;6.70;;;8.70;99.90;;;7.33;100.00;100071.25;4939637;29;20046;-77
2022/09/26 04:13:44;;;;;;;14.32;6.00;;;8.60;99.90;;;7.33;100.00;100070.41;4926235;29;20068;-78
2022/09/26 04:16:10;;;;;;;16.15;6.07;;;8.60;99.90;;;7.32;100.00;100079.19;4926870;29;20057;-77
2022/09/26 04:18:36;;;;;;;26.23;6.57;;;8.60;99.90;;;7.31;100.00;100069.63;4924335;29;20043;-76
2022/09/26 04:21:09;;;;;;;14.13;6.40;;;8.60;99.90;;;7.31;100.00;100067.00;4942269;29;20066;-77
2022/09/26 04:23:40;;;;;;;19.65;6.13;;;8.60;99.90;;;7.28;100.00;100067.13;4923063;29;20035;-77
2022/09/26 04:26:16;;;;;;;22.30;6.10;;;8.60;99.90;;;7.28;100.00;100069.75;4941081;29;20024;-77
2022/09/26 04:28:43;;;;;;;20.35;6.32;;;8.60;99.90;;;7.27;100.00;100068.06;4926051;29;20050;-77
2022/09/26 04:31:11;;;;;;;21.85;5.93;;;8.60;99.90;;;7.26;100.00;100058.53;4925522;29;20043;-77
2022/09/26 04:33:38;;;;;;;19.13;6.15;;;8.60;99.90;;;7.25;100.00;100065.50;4924347;29;20143;-77
2022/09/26 04:36:10;;;;;;;17.33;6.13;;;8.50;99.90;;;7.25;100.00;100062.88;4922678;29;20062;-77
2022/09/26 04:38:38;;;;;;;17.35;5.50;;;8.60;99.90;;;7.23;100.00;100051.63;4924745;29;20040;-77
2022/09/26 04:41:17;;;;;;;18.50;5.93;;;8.60;99.90;;;7.24;100.00;100060.34;4925039;29;20028;-77
2022/09/26 04:43:43;;;;;;;20.17;5.50;;;8.60;99.90;;;7.23;100.00;100053.41;4939611;29;20432;-77
2022/09/26 04:46:20;;;;;;;27.35;6.07;;;8.50;99.90;;;7.21;100.00;100050.00;4925333;29;20031;-77
2022/09/26 04:48:47;;;;;;;20.80;4.90;;;8.50;99.90;;;7.20;100.00;100049.16;4921729;28;20086;-77
2022/09/26 04:51:15;;;;;;;21.30;5.80;;;8.50;99.90;;;7.19;100.00;100056.16;4925968;29;20036;-77
2022/09/26 04:53:41;;;;;;;14.68;5.43;;;8.50;99.90;;;7.19;100.00;100052.66;4942320;29;20038;-77
2022/09/26 04:56:10;;;;;;;28.13;5.20;;;8.40;99.90;;;7.17;100.00;100060.63;4927136;29;20027;-77
2022/09/26 04:58:37;;;;;;;21.60;5.30;;;8.50;99.90;;;7.15;100.00;100046.75;4924568;29;20446;-77
2022/09/26 05:01:20;;;;;;;17.60;5.45;;;8.40;99.90;;;7.13;100.00;100045.94;4927660;29;20036;-77
2022/09/26 05:03:46;;;;;;;20.35;4.88;;;8.40;99.90;;;7.11;100.00;100045.16;4940660;29;20035;-77
2022/09/26 05:06:14;;;;;;;15.07;4.88;;;8.40;99.90;;;7.09;100.00;100049.63;4923616;29;20133;-77
2022/09/26 05:08:44;;;;;;;16.63;4.88;;;8.40;99.90;;;7.09;100.00;100056.63;4925264;29;20063;-78
2022/09/26 05:11:11;;;;;;;16.42;4.65;;;8.40;99.90;;;7.08;100.00;100045.28;4924590;29;20708;-78
2022/09/26 05:13:37;;;;;;;14.95;4.45;;;8.40;99.90;;;7.09;100.00;100054.84;4940410;28;20118;-77
2022/09/26 05:16:07;;;;;;;23.05;4.47;;;8.30;99.90;;;7.09;100.00;100057.47;4924170;29;20119;-77
2022/09/26 05:18:33;;;;;;;12.65;4.55;;;8.30;99.90;;;7.08;100.00;100047.91;4925242;29;20095;-77
2022/09/26 05:21:00;;;;;;;19.73;4.72;;;8.30;99.90;;;7.07;100.00;100048.00;4924003;29;20039;-77
2022/09/26 05:26:44;;;;;;;22.13;5.35;;;8.30;99.90;;;7.14;100.00;100041.56;4928731;29;20127;-77
2022/09/26 05:29:11;;;;;;;24.73;5.90;;;8.30;99.90;;;7.19;100.00;100047.44;4938557;29;20027;-76
2022/09/26 05:31:39;;;;;;;12.23;4.72;;;8.40;99.90;;;7.25;100.00;100046.31;4925823;29;20031;-77
2022/09/26 05:34:11;;;;;;;12.68;5.30;;;8.40;99.90;;;7.29;100.00;100046.13;4939480;29;20024;-77
2022/09/26 05:36:38;;;;;;;11.18;5.30;;;8.40;99.90;;;7.36;100.00;100044.97;4941095;29;20051;-77
2022/09/26 05:40:55;;;;;;;11.90;4.72;;;8.50;99.90;;;7.45;100.00;100045.44;4939985;29;20381;-78
2022/09/26 05:41:52;;;;;;;34.63;6.10;;;8.50;99.90;;;7.54;100.00;100040.66;4924871;29;20027;-77
2022/09/26 05:44:18;;;;;;;18.13;5.25;;;8.60;99.90;;;7.65;100.00;100039.34;4923701;29;20035;-77
2022/09/26 05:46:46;;;;;;;19.05;6.10;;;8.70;99.90;;;7.74;100.00;100034.50;4939946;29;20039;-77
2022/09/26 05:49:13;;;;;;;15.52;5.72;;;8.80;99.90;;;7.87;100.00;100034.78;4923174;29;20432;-77
2022/09/26 05:51:42;;;;;;;20.60;5.53;;;8.90;99.90;;;8.12;100.00;100038.88;4924176;29;20024;-77
2022/09/26 05:54:07;;;;;;;19.15;5.60;;;9.10;99.90;;;8.66;100.00;100047.69;4924474;29;20024;-77
2022/09/26 05:56:36;;;;;;;19.73;5.10;;;9.20;99.90;;;8.67;100.00;100045.91;4922881;29;20036;-77
2022/09/26 05:59:02;;;;;;;26.77;6.28;;;9.40;99.90;;;9.00;100.00;100049.44;4925032;29;20062;-77
2022/09/26 06:01:28;;;;;;;9.98;4.80;;;9.70;99.90;;;9.45;100.00;100053.25;4940928;29;20039;-77
2022/09/26 06:03:54;;;;;;;16.88;4.78;;;10.10;99.90;;;10.96;100.00;100052.78;4922514;29;20051;-77
2022/09/26 06:06:20;;;;;;;17.45;4.80;;;10.60;99.90;;;11.15;99.72;100046.44;4924339;29;20055;-77
2022/09/26 06:08:47;;;;;;;10.32;4.07;;;11.00;99.90;;;10.89;98.45;100035.66;4941727;29;20067;-76
2022/09/26 06:11:23;;;;;;;9.90;3.80;;;11.20;99.90;;;11.02;97.11;100031.34;4922269;29;20429;-77
2022/09/26 06:13:49;;;;;;;;;;;11.30;99.90;;;11.03;95.98;100033.03;4927033;29;20110;-78
2022/09/26 06:16:19;;;;;;;11.47;2.73;;;11.50;99.90;;;11.06;95.96;100034.66;4940851;29;20008;-77
2022/09/26 06:18:47;;;;;;;17.77;3.90;;;11.60;99.90;;;11.00;95.50;100037.66;4923442;29;20032;-77
2022/09/26 06:21:16;;;;;;;14.93;3.67;;;11.60;99.90;;;11.00;96.20;100027.97;4922627;29;20062;-77
2022/09/26 06:23:42;;;;;;;12.05;3.22;;;11.70;99.90;;;10.97;96.68;100033.44;4937239;29;20039;-77
2022/09/26 06:26:17;;;;;;;15.45;3.30;;;11.80;99.90;;;11.04;96.93;100033.91;4939785;29;20198;-77
2022/09/26 06:28:43;;;;;;;9.38;2.65;;;11.80;99.90;;;11.23;95.47;100037.13;4924932;29;20035;-76
2022/09/26 06:31:14;;;;;;;12.65;2.95;;;12.00;99.90;;;11.29;95.38;100028.88;4923289;29;20114;-77
2022/09/26 06:33:40;;;;;;;13.85;2.58;;;12.00;99.90;;;11.43;95.25;100030.66;4922983;29;20464;-77
2022/09/26 06:36:09;;;;;;;13.05;2.33;;;12.20;99.90;;;11.83;93.78;100027.31;4923730;29;20028;-77
2022/09/26 06:38:36;;;;;;;12.98;2.50;;;12.30;99.90;;;11.90;93.06;100026.03;4922886;29;20081;-76
2022/09/26 06:41:03;;;;;;;11.07;2.83;;;12.70;99.90;;;14.78;85.22;100038.84;4923536;29;20530;-77
2022/09/26 06:43:30;;;;;;;15.35;2.53;;;13.30;99.90;;;14.47;79.75;100022.56;4923681;29;20051;-77
2022/09/26 06:45:56;;;;;;;9.35;2.00;;;13.70;99.90;;;13.87;80.45;100020.78;4945059;29;20396;-77
2022/09/26 06:48:23;;;;;;;10.90;2.05;;;13.90;99.90;;;14.51;79.74;100023.16;4941997;29;20060;-77
2022/09/26 06:50:59;;;;;;;12.23;2.53;;;14.00;99.90;;;13.86;80.05;100019.06;4942953;29;20038;-77
2022/09/26 06:53:25;;;;;;;15.70;2.20;;;14.10;99.90;;;14.13;79.74;100019.72;4924019;29;20024;-77
2022/09/26 06:55:51;;;;;;;9.65;1.95;;;14.20;99.90;;;13.69;80.09;100010.56;4932461;29;20318;-77
2022/09/26 06:58:17;;;;;;;9.27;2.00;;;14.20;99.90;;;13.76;80.82;100016.25;4927796;29;20063;-76
2022/09/26 07:00:43;;;;;;;5.57;2.20;;;14.10;99.90;;;13.44;81.84;100002.66;4925675;29;20035;-77
2022/09/26 07:03:09;;;;;;;12.68;2.22;;;14.10;99.90;;;13.22;82.91;100005.91;4927457;29;20441;-77
2022/09/26 07:05:35;;;;;;;7.65;1.90;;;13.90;99.90;;;12.93;83.37;100003.44;4926445;29;20035;-79
2022/09/26 07:08:01;;;;;;;10.90;2.53;;;13.80;99.90;;;12.85;84.77;100001.34;4928487;29;20035;-77
2022/09/26 07:10:34;;;;;;;7.90;1.83;;;13.70;99.90;;;12.59;85.64;99999.59;4927459;29;20115;-77
2022/09/26 07:13:03;;;;;;;12.05;2.13;;;13.50;99.90;;;12.41;86.44;99996.38;4922622;29;20126;-77
2022/09/26 07:15:32;;;;;;;7.28;2.10;;;13.40;99.90;;;12.36;87.26;100004.59;4922679;29;20031;-77
2022/09/26 07:18:01;;;;;;;7.97;1.95;;;13.30;99.90;;;12.35;87.42;99992.34;4941665;29;20031;-77
2022/09/26 07:20:30;;;;;;;9.18;1.90;;;13.30;99.90;;;12.27;87.43;99986.72;4926495;29;20035;-77
2022/09/26 07:23:00;;;;;;;13.40;2.40;;;13.30;99.90;;;12.34;87.43;99989.81;4926923;29;20098;-78
2022/09/26 07:25:26;;;;;;;9.30;1.88;;;13.30;99.90;;;12.64;86.36;99993.06;4927430;29;20066;-77
2022/09/26 07:27:52;;;;;;;7.53;2.00;;;13.50;99.90;;;13.39;83.13;100000.34;4946123;29;20031;-77
2022/09/26 07:30:18;;;;;;;8.07;2.15;;;13.90;99.90;;;15.35;78.51;100011.47;4927448;29;20061;-78
2022/09/26 07:32:46;;;;;;;7.10;1.30;;;15.00;99.90;;;16.44;72.09;99999.28;4943910;28;20028;-76
2022/09/26 07:35:13;;;;;;;8.40;2.10;;;16.10;99.90;;;16.94;69.59;99991.56;4927384;29;20035;-76
2022/09/26 07:37:38;;;;;;;8.77;1.70;;;16.90;99.90;;;17.60;67.92;99988.53;4926222;29;20031;-76
2022/09/26 07:40:05;;;;;;;7.05;1.60;;;17.60;99.90;;;18.09;66.20;99990.50;4942885;29;20118;-76
2022/09/26 07:42:31;;;;;;;6.25;1.55;;;18.10;99.90;;;18.30;64.99;99985.91;4924099;29;20041;-76
2022/09/26 07:44:57;;;;;;;6.60;1.70;;;18.40;99.90;;;18.17;64.76;99980.84;4926180;29;20043;-76
2022/09/26 07:50:12;;;;;;;11.65;2.25;;;18.30;99.90;;;17.62;66.05;99975.06;4956871;28;20049;-78
2022/09/26 07:52:49;;;;;;;11.80;1.92;;;18.20;99.90;;;17.51;66.90;99967.19;4956612;28;20028;-78
2022/09/26 07:55:26;;;;;;;8.63;2.05;;;18.10;99.90;;;17.64;66.55;99965.13;4941744;29;20031;-77
2022/09/26 07:57:51;;;;;;;9.38;2.10;;;18.20;99.90;;;17.72;66.61;99973.28;4961521;28;20046;-78
2022/09/26 08:00:20;;;;;;;7.20;1.80;;;18.20;99.90;;;17.71;66.60;99970.75;4950816;28;20035;-78
2022/09/26 08:02:46;;;;;;;10.32;1.90;;;18.20;99.90;;;17.86;65.93;99971.25;4944636;28;20028;-78
2022/09/26 08:05:16;;;;;;;7.28;1.60;;;18.20;99.90;;;17.67;66.15;99967.53;4927907;28;20031;-79
2022/09/26 08:07:46;;;;;;;7.53;1.63;;;18.10;99.90;;;17.46;66.61;99970.25;4946360;28;20487;-78
2022/09/26 08:10:20;;;;;;;8.00;1.75;;;18.10;99.90;;;17.87;66.50;99972.97;4929172;28;20550;-78
2022/09/26 08:12:49;;;;;;;7.57;1.63;;;18.30;99.90;;;17.79;65.58;99970.94;4941515;28;20557;-78
2022/09/26 08:15:15;;;;;;;10.63;1.70;;;18.40;99.90;;;17.77;65.50;99975.53;4927779;28;20031;-77
2022/09/26 08:17:45;;;;;;;7.32;1.75;;;18.40;99.90;;;18.03;64.55;99975.91;4961899;28;20165;-78
2022/09/26 08:20:10;;;;;;;7.75;1.70;;;18.50;99.90;;;17.98;64.23;99972.84;4945098;28;20041;-78
2022/09/26 08:22:38;;;;;;;7.47;1.65;;;18.60;99.90;;;18.18;64.50;99974.53;4952701;28;20831;-78
2022/09/26 08:25:06;;;;;;;7.40;1.85;;;19.10;99.90;;;19.39;62.18;99988.28;4952110;28;20503;-78
2022/09/26 08:27:33;;;;;;;10.45;2.10;;;20.00;99.90;;;20.02;60.33;99987.56;4960364;28;20023;-78
2022/09/26 08:29:59;;;;;;;10.20;1.98;;;20.70;99.90;;;20.68;58.53;99989.09;4952575;28;20026;-78
2022/09/26 08:32:25;;;;;;;10.38;1.98;;;21.20;99.90;;;21.04;57.06;99981.81;4952546;28;20034;-78
2022/09/26 08:34:51;;;;;;;7.60;1.73;;;21.70;99.90;;;21.27;56.31;99989.31;4953501;28;20054;-77
2022/09/26 08:37:19;;;;;;;5.40;1.70;;;22.00;99.90;;;21.52;55.67;99992.16;4959898;28;20407;-78
2022/09/26 08:39:45;;;;;;;4.55;1.60;;;22.10;99.90;;;21.49;55.58;99987.97;4948236;28;20031;-78
2022/09/26 08:43:12;;;;;;;7.20;1.60;;;22.40;99.90;;;22.26;53.35;99987.91;4928479;28;20034;-78
2022/09/26 08:49:03;;;;;;;6.78;1.63;;;23.20;99.90;;;22.34;52.61;99973.69;4944661;28;20092;-78
2022/09/26 08:51:43;;;;;;;9.85;1.60;;;23.10;99.90;;;22.21;52.84;99977.66;4961059;28;20050;-79
2022/09/26 08:54:18;;;;;;;6.85;1.60;;;22.90;99.90;;;21.94;53.29;99983.28;4945461;28;20075;-79
2022/09/26 08:56:57;;;;;;;8.35;1.92;;;22.50;99.90;;;21.35;54.49;99981.34;4946146;28;20037;-78
2022/09/26 08:59:28;;;;;;;6.93;1.42;;;21.90;99.90;;;20.60;55.36;99976.47;4944448;28;20036;-78
2022/09/26 09:02:01;;;;;;;9.85;2.05;;;21.40;99.90;;;20.35;57.22;99974.56;4945186;28;20478;-78
2022/09/26 09:04:51;;;;;;;8.05;1.88;;;21.10;99.90;;;20.16;56.76;99963.03;4944378;28;20492;-77
2022/09/26 09:07:28;;;;;;;8.50;1.80;;;20.70;99.90;;;19.71;56.79;99969.22;4946908;28;20078;-77
2022/09/26 09:10:01;;;;;;;9.73;1.75;;;20.60;99.90;;;20.05;57.18;99964.06;4927206;28;20105;-77
2022/09/26 09:13:18;;;;;;;6.43;1.70;;;20.50;99.90;;;19.81;56.53;99953.97;4958876;28;20030;-78
2022/09/26 09:16:21;;;;;;;7.93;1.83;;;20.30;99.90;;;19.62;57.34;99960.22;4935857;28;20070;-78
2022/09/26 09:19:41;;;;;;;10.18;1.73;;;20.10;99.90;;;19.54;57.74;99953.94;4961478;28;20271;-78
2022/09/26 09:22:24;;;;;;;4.57;1.88;;;20.00;99.90;;;19.15;58.95;99946.09;4918793;28;20408;-78
2022/09/26 09:25:07;;;;;;;6.78;1.70;;;19.80;99.90;;;18.98;59.83;99951.19;4959736;28;20037;-78
2022/09/26 09:28:11;;;;;;;6.28;1.83;;;19.60;99.90;;;18.74;59.90;99951.63;4943939;28;20562;-77
2022/09/26 09:30:49;;;;;;;7.72;1.30;;;19.50;99.90;;;18.63;59.55;99944.63;4943144;28;20039;-78
2022/09/26 09:33:37;;;;;;;5.70;1.27;;;19.40;99.90;;;18.43;59.20;99943.00;4944955;28;20038;-78
2022/09/26 09:36:15;;;;;;;7.55;1.20;;;19.20;99.90;;;18.29;59.96;99943.41;4958696;28;20031;-77
2022/09/26 09:38:51;;;;;;;5.60;1.50;;;19.00;99.90;;;18.16;60.09;99931.22;4944033;28;20039;-77
2022/09/26 09:41:42;;;;;;;;;;;19.00;99.90;;;18.11;59.36;99933.44;4951051;28;20057;-78
2022/09/26 09:44:54;;;;;;;3.47;1.25;;;18.90;99.90;;;18.13;60.31;99934.16;4960437;28;19937;-78
2022/09/26 09:47:21;;;;;;;3.00;1.10;;;18.90;99.90;;;17.95;61.85;99927.84;4959536;28;20043;-78
2022/09/26 09:49:56;;;;;;;3.80;1.30;;;18.80;99.90;;;17.93;62.46;99924.47;4944767;28;20034;-77
2022/09/26 09:52:48;;;;;;;5.55;1.10;;;18.70;99.90;;;17.87;60.44;99919.69;4945107;28;20047;-78
2022/09/26 09:55:41;;;;;;;8.52;1.63;;;18.70;99.90;;;17.62;60.45;99922.69;4931967;28;20046;-77
2022/09/26 09:58:44;;;;;;;5.38;1.25;;;18.50;99.90;;;17.43;60.89;99918.16;4942888;28;20668;-78
2022/09/26 10:01:40;;;;;;;5.47;1.13;;;18.40;99.90;;;17.42;61.34;99918.28;4958298;28;20031;-78
2022/09/26 10:04:10;;;;;;;4.43;1.40;;;18.30;99.90;;;17.29;61.66;99921.19;4945521;28;20042;-77
2022/09/26 10:06:43;;;;;;;5.68;1.38;;;18.20;99.90;;;17.15;61.72;99924.22;4961149;28;20039;-78
2022/09/26 10:09:26;;;;;;;6.18;1.33;;;18.20;99.90;;;17.21;61.96;99918.34;4941993;28;20023;-77
2022/09/26 10:11:56;;;;;;;4.32;1.42;;;18.10;99.90;;;17.18;62.81;99923.94;4925363;28;20113;-77
2022/09/26 10:14:48;;;;;;;4.60;1.05;;;18.00;99.90;;;17.02;62.08;99922.63;4932497;28;20089;-78
2022/09/26 10:17:17;;;;;;;2.88;0.98;;;17.90;99.90;;;16.91;62.60;99914.72;4959993;28;20035;-77
2022/09/26 10:19:50;;;;;;;6.32;1.27;;;17.80;99.90;;;16.93;62.51;99920.75;4950281;28;20039;-77
2022/09/26 10:22:43;;;;;;;4.82;1.50;;;17.80;99.90;;;16.93;62.55;99911.91;4944449;28;20027;-77
2022/09/26 10:25:21;;;;;;;8.60;1.30;;;17.80;99.90;;;17.13;62.83;99905.72;4941477;28;20078;-77
2022/09/26 10:27:59;;;;;;;4.00;1.38;;;17.90;99.90;;;17.21;62.28;99913.03;4941333;28;20047;-77
2022/09/26 10:30:32;;;;;;;1.75;0.82;;;18.00;99.90;;;17.13;61.17;99899.56;4941093;28;20035;-77
2022/09/26 10:33:03;;;;;;;5.65;1.35;;;17.90;99.90;;;16.95;61.35;99902.84;4942536;28;20392;-77
2022/09/26 10:36:35;;;;;;;4.78;1.20;;;17.90;99.90;;;16.91;60.55;99895.25;4931158;28;20106;-77
2022/09/26 10:42:24;;;;;;;4.47;1.00;;;17.80;99.90;;;16.86;61.50;99905.44;4959583;28;20046;-77
2022/09/26 10:44:58;;;;;;;7.00;1.40;;;17.90;99.90;;;17.23;61.81;99905.75;4943987;28;20041;-78
2022/09/26 10:47:29;;;;;;;3.78;0.90;;;18.10;99.90;;;17.43;60.80;99888.88;4948449;28;20580;-77
2022/09/26 10:50:06;;;;;;;3.42;1.00;;;18.20;99.90;;;17.59;59.78;99895.50;4926217;28;20036;-77
2022/09/26 10:52:51;;;;;;;;;;;18.30;99.90;;;17.75;59.45;99885.19;4941792;28;20121;-77
2022/09/26 10:55:31;;;;;;;4.22;0.90;;;18.40;99.90;;;17.63;59.95;99887.09;4942564;28;19925;-77